Time;durP1;ratioP1;P1;durP2;ratioP2;P2;SDS_P1;SDS_P2;PMS_P1;PMS_P2;Temp;Humidity;BMP_temperature;BMP_pressure;BME280_temperature;BME280_humidity;BME280_pressure;Samples;Min_cycle;Max_cycle;Signal;HPM_P1;HPM_P2
2023/07/24 00:00:03;;;;;;;21.88;19.58;;;;;;;;;;5069506;28;20016;-53
2023/07/24 00:02:29;;;;;;;20.50;17.35;;;;;;;;;;5073326;28;20454;-54
2023/07/24 00:04:54;;;;;;;21.75;17.23;;;;;;;;;;5071821;28;20055;-55
2023/07/24 00:07:20;;;;;;;19.98;15.88;;;;;;;;;;5112116;28;20445;-57
2023/07/24 00:09:46;;;;;;;20.30;14.68;;;;;;;;;;5112381;28;20062;-54
2023/07/24 00:12:12;;;;;;;21.85;15.73;;;;;;;;;;5087228;28;20012;-50
2023/07/24 00:14:38;;;;;;;20.38;14.73;;;;;;;;;;5068567;28;20054;-51
2023/07/24 00:17:04;;;;;;;20.02;14.63;;;;;;;;;;5112076;28;20063;-52
2023/07/24 00:19:30;;;;;;;22.42;15.57;;;;;;;;;;5125753;22;20030;-64
2023/07/24 00:21:56;;;;;;;20.48;15.00;;;;;;;;;;4949511;29;20035;-63
2023/07/24 00:24:22;;;;;;;21.50;15.98;;;;;;;;;;4949055;28;20020;-64
2023/07/24 00:26:48;;;;;;;20.35;15.35;;;;;;;;;;4949758;29;20030;-65
2023/07/24 00:29:14;;;;;;;21.13;15.30;;;;;;;;;;4948295;28;20035;-64
2023/07/24 00:31:40;;;;;;;24.58;15.63;;;;;;;;;;4949640;29;20411;-64
2023/07/24 00:34:06;;;;;;;21.65;15.57;;;;;;;;;;4949299;28;20027;-65
2023/07/24 00:36:32;;;;;;;23.00;14.88;;;;;;;;;;4949974;28;20471;-65
2023/07/24 00:38:58;;;;;;;19.73;15.10;;;;;;;;;;4949894;28;20046;-65
2023/07/24 00:41:24;;;;;;;21.42;14.20;;;;;;;;;;4951996;28;20027;-64
2023/07/24 00:43:50;;;;;;;20.27;14.27;;;;;;;;;;4935904;28;20124;-64
2023/07/24 00:46:16;;;;;;;21.30;14.15;;;;;;;;;;4952708;28;20027;-64
2023/07/24 00:48:42;;;;;;;20.05;13.32;;;;;;;;;;4935935;28;20035;-66
2023/07/24 00:51:08;;;;;;;19.77;13.05;;;;;;;;;;4952947;28;20031;-64
2023/07/24 00:53:34;;;;;;;20.50;13.73;;;;;;;;;;4953187;28;20459;-63
2023/07/24 00:56:00;;;;;;;18.95;12.15;;;;;;;;;;4934592;28;20127;-64
2023/07/24 00:58:26;;;;;;;24.27;13.25;;;;;;;;;;4952846;28;20199;-64
2023/07/24 01:00:52;;;;;;;19.55;13.00;;;;;;;;;;4953015;28;20672;-63
2023/07/24 01:03:18;;;;;;;19.13;13.45;;;;;;;;;;4952988;28;20035;-65
2023/07/24 01:05:44;;;;;;;18.55;12.32;;;;;;;;;;4952486;28;20453;-64
2023/07/24 01:08:10;;;;;;;20.77;13.63;;;;;;;;;;4935580;28;20077;-63
2023/07/24 01:10:37;;;;;;;21.95;13.68;;;;;;;;;;4935579;28;20031;-63
2023/07/24 01:13:06;;;;;;;24.73;12.68;;;;;;;;;;4953019;28;20066;-64
2023/07/24 01:15:33;;;;;;;19.65;12.25;;;;;;;;;;4951908;28;20111;-63
2023/07/24 01:18:19;;;;;;;21.80;11.90;;;;;;;;;;4952790;28;20118;-63
2023/07/24 01:20:50;;;;;;;18.70;12.25;;;;;;;;;;4952132;28;20134;-64
2023/07/24 01:23:18;;;;;;;21.45;13.02;;;;;;;;;;4935530;28;20108;-64
2023/07/24 01:26:02;;;;;;;25.55;12.65;;;;;;;;;;4951720;28;20134;-64
2023/07/24 01:28:28;;;;;;;18.70;12.05;;;;;;;;;;4935251;28;20027;-65
2023/07/24 01:30:55;;;;;;;20.45;12.32;;;;;;;;;;4952593;28;20106;-64
2023/07/24 01:33:21;;;;;;;19.77;12.45;;;;;;;;;;4952386;28;20041;-65
2023/07/24 01:35:50;;;;;;;19.42;12.68;;;;;;;;;;4951626;28;20407;-65
2023/07/24 01:38:16;;;;;;;20.63;13.13;;;;;;;;;;4952275;28;20040;-63
2023/07/24 01:40:42;;;;;;;18.70;11.90;;;;;;;;;;4952247;28;20119;-64
2023/07/24 01:43:09;;;;;;;18.63;11.40;;;;;;;;;;4952294;28;20043;-64
2023/07/24 01:45:35;;;;;;;19.60;11.55;;;;;;;;;;4951324;28;20032;-64
2023/07/24 01:48:02;;;;;;;19.70;11.38;;;;;;;;;;4951907;28;20049;-63
2023/07/24 01:50:28;;;;;;;17.95;10.68;;;;;;;;;;4952084;28;20081;-64
2023/07/24 01:52:54;;;;;;;19.52;10.32;;;;;;;;;;4951299;28;20031;-65
2023/07/24 01:55:20;;;;;;;18.25;10.38;;;;;;;;;;4951086;28;20050;-64
2023/07/24 01:57:46;;;;;;;18.48;10.95;;;;;;;;;;4952074;28;20023;-63
2023/07/24 02:00:12;;;;;;;18.75;10.43;;;;;;;;;;4951857;28;20065;-64
2023/07/24 02:02:38;;;;;;;18.92;10.45;;;;;;;;;;4951976;28;20490;-65
2023/07/24 02:05:04;;;;;;;18.83;9.98;;;;;;;;;;4951297;28;20019;-65
2023/07/24 02:07:30;;;;;;;17.05;10.38;;;;;;;;;;4951862;28;20054;-65
2023/07/24 02:09:57;;;;;;;21.23;10.35;;;;;;;;;;4951922;28;20069;-63
2023/07/24 02:12:23;;;;;;;19.00;9.85;;;;;;;;;;4934854;28;20030;-63
2023/07/24 02:14:51;;;;;;;21.15;10.38;;;;;;;;;;4934229;28;20392;-63
2023/07/24 02:17:17;;;;;;;17.90;9.52;;;;;;;;;;4952139;28;20028;-63
2023/07/24 02:19:43;;;;;;;17.40;9.43;;;;;;;;;;4951587;28;20043;-64
2023/07/24 02:22:09;;;;;;;20.90;10.02;;;;;;;;;;4951939;28;20161;-64
2023/07/24 02:24:35;;;;;;;19.58;9.60;;;;;;;;;;4950994;28;20039;-64
2023/07/24 02:27:01;;;;;;;19.33;9.90;;;;;;;;;;4951950;28;20035;-64
2023/07/24 02:29:27;;;;;;;17.23;9.70;;;;;;;;;;4952411;28;20028;-63
2023/07/24 02:31:54;;;;;;;18.33;10.07;;;;;;;;;;4970945;28;20078;-65
2023/07/24 02:34:24;;;;;;;18.05;10.50;;;;;;;;;;4970222;28;20057;-64
2023/07/24 02:36:50;;;;;;;19.50;10.18;;;;;;;;;;4971048;28;20054;-64
2023/07/24 02:39:16;;;;;;;18.63;10.88;;;;;;;;;;4970746;28;20027;-64
2023/07/24 02:41:42;;;;;;;19.17;10.00;;;;;;;;;;4939131;28;20086;-64
2023/07/24 02:44:08;;;;;;;17.90;10.45;;;;;;;;;;4933931;28;20042;-62
2023/07/24 02:46:34;;;;;;;19.95;11.40;;;;;;;;;;4951141;28;20031;-64
2023/07/24 02:49:00;;;;;;;19.52;10.70;;;;;;;;;;4951215;28;20027;-63
2023/07/24 02:51:26;;;;;;;21.15;11.13;;;;;;;;;;4951183;28;20028;-64
2023/07/24 02:53:53;;;;;;;18.33;10.40;;;;;;;;;;4951055;28;20061;-59
2023/07/24 02:56:20;;;;;;;21.17;10.40;;;;;;;;;;4950953;28;20120;-63
2023/07/24 02:58:46;;;;;;;19.33;10.02;;;;;;;;;;4951507;28;20027;-64
2023/07/24 03:01:14;;;;;;;19.58;9.85;;;;;;;;;;4933772;28;20031;-63
2023/07/24 03:03:40;;;;;;;20.33;10.75;;;;;;;;;;4950787;28;20442;-64
2023/07/24 03:06:06;;;;;;;19.70;9.63;;;;;;;;;;4950141;28;20036;-65
2023/07/24 03:08:32;;;;;;;19.33;11.77;;;;;;;;;;4950938;28;20094;-64
2023/07/24 03:10:58;;;;;;;19.63;9.63;;;;;;;;;;4933606;28;20039;-64
2023/07/24 03:13:24;;;;;;;20.35;11.10;;;;;;;;;;4950770;28;20026;-63
2023/07/24 03:15:54;;;;;;;19.63;9.80;;;;;;;;;;4932819;28;20077;-62
2023/07/24 03:18:20;;;;;;;17.52;9.88;;;;;;;;;;4950865;28;20031;-63
2023/07/24 03:20:46;;;;;;;17.98;9.48;;;;;;;;;;4933476;28;20453;-64
2023/07/24 03:23:12;;;;;;;19.20;10.15;;;;;;;;;;4933707;28;20027;-63
2023/07/24 03:25:38;;;;;;;18.88;9.90;;;;;;;;;;4933016;28;20034;-64
2023/07/24 03:28:04;;;;;;;21.58;9.23;;;;;;;;;;4933778;28;20039;-64
2023/07/24 03:30:30;;;;;;;21.23;10.30;;;;;;;;;;4950959;28;20031;-64
2023/07/24 03:32:56;;;;;;;17.30;9.15;;;;;;;;;;4950758;28;20028;-63
2023/07/24 03:35:22;;;;;;;18.02;9.20;;;;;;;;;;4950273;28;20020;-64
2023/07/24 03:37:48;;;;;;;19.40;9.57;;;;;;;;;;4950840;28;20380;-64
2023/07/24 03:40:15;;;;;;;18.40;9.88;;;;;;;;;;4933865;28;20032;-64
2023/07/24 03:42:41;;;;;;;19.00;10.70;;;;;;;;;;4951037;28;20668;-63
2023/07/24 03:45:07;;;;;;;23.25;10.85;;;;;;;;;;4949973;28;20114;-63
2023/07/24 03:47:33;;;;;;;19.10;11.27;;;;;;;;;;4950631;28;20027;-63
2023/07/24 03:49:59;;;;;;;20.73;11.35;;;;;;;;;;4950521;28;20063;-65
2023/07/24 03:52:25;;;;;;;19.00;11.70;;;;;;;;;;4950743;28;20392;-64
2023/07/24 03:54:52;;;;;;;20.75;11.23;;;;;;;;;;4951635;28;20027;-64
2023/07/24 03:57:18;;;;;;;22.08;12.27;;;;;;;;;;4969917;28;20038;-63
2023/07/24 03:59:44;;;;;;;20.23;12.60;;;;;;;;;;4952821;28;20038;-64
2023/07/24 04:02:10;;;;;;;22.40;13.05;;;;;;;;;;4970142;28;20485;-64
2023/07/24 04:04:36;;;;;;;21.45;12.05;;;;;;;;;;4969058;28;20027;-64
2023/07/24 04:07:02;;;;;;;21.98;13.13;;;;;;;;;;4969784;28;20094;-64
2023/07/24 04:09:28;;;;;;;20.38;12.63;;;;;;;;;;4952408;28;20034;-63
2023/07/24 04:11:54;;;;;;;19.15;12.65;;;;;;;;;;4952514;28;20023;-65
2023/07/24 04:14:20;;;;;;;21.65;15.88;;;;;;;;;;4970067;28;20548;-65
2023/07/24 04:16:46;;;;;;;21.48;15.93;;;;;;;;;;4970248;28;20027;-63
2023/07/24 04:19:13;;;;;;;24.80;16.90;;;;;;;;;;4970889;28;20030;-64
2023/07/24 04:21:39;;;;;;;24.50;18.63;;;;;;;;;;4970190;28;20042;-64
2023/07/24 04:24:05;;;;;;;22.70;19.15;;;;;;;;;;4969871;28;20050;-64
2023/07/24 04:26:31;;;;;;;21.38;18.38;;;;;;;;;;4952366;28;20118;-64
2023/07/24 04:28:57;;;;;;;23.83;18.58;;;;;;;;;;4969926;28;20453;-63
2023/07/24 04:31:22;;;;;;;25.88;19.10;;;;;;;;;;4969631;28;20038;-64
2023/07/24 04:33:48;;;;;;;32.88;29.75;;;;;;;;;;4969752;28;20701;-62
2023/07/24 04:36:14;;;;;;;34.08;29.38;;;;;;;;;;4968640;28;20059;-64
2023/07/24 04:38:40;;;;;;;32.97;29.73;;;;;;;;;;4969562;28;20034;-64
2023/07/24 04:41:06;;;;;;;27.52;24.63;;;;;;;;;;4969559;28;20067;-63
2023/07/24 04:43:32;;;;;;;30.67;27.55;;;;;;;;;;4969577;28;20035;-63
2023/07/24 04:45:58;;;;;;;29.35;26.33;;;;;;;;;;4969213;28;20393;-63
2023/07/24 04:48:24;;;;;;;27.45;24.55;;;;;;;;;;4968792;28;20065;-63
2023/07/24 04:50:57;;;;;;;27.85;25.02;;;;;;;;;;4952513;28;20030;-63
2023/07/24 04:53:23;;;;;;;28.10;25.05;;;;;;;;;;4971117;28;20032;-62
2023/07/24 04:55:49;;;;;;;30.25;27.05;;;;;;;;;;4970074;28;20030;-63
2023/07/24 04:58:15;;;;;;;29.02;26.17;;;;;;;;;;4953422;28;20030;-63
2023/07/24 05:00:41;;;;;;;29.65;26.58;;;;;;;;;;4969136;28;20035;-63
2023/07/24 05:03:10;;;;;;;37.50;29.23;;;;;;;;;;4945055;28;20040;-60
2023/07/24 05:05:36;;;;;;;29.58;25.77;;;;;;;;;;5028468;28;20025;-64
2023/07/24 05:08:02;;;;;;;28.20;24.15;;;;;;;;;;5017616;28;20108;-64
2023/07/24 05:10:29;;;;;;;27.38;23.70;;;;;;;;;;5033293;28;20027;-65
2023/07/24 05:12:56;;;;;;;27.85;23.13;;;;;;;;;;5009465;28;20064;-65
2023/07/24 05:15:24;;;;;;;27.73;23.88;;;;;;;;;;4990656;28;20049;-66
2023/07/24 05:17:50;;;;;;;31.13;24.67;;;;;;;;;;5009136;28;20366;-64
2023/07/24 05:20:16;;;;;;;28.23;22.77;;;;;;;;;;4973522;28;20042;-63
2023/07/24 05:22:42;;;;;;;29.40;23.92;;;;;;;;;;4932763;28;20032;-64
2023/07/24 05:25:08;;;;;;;27.15;22.85;;;;;;;;;;4948812;28;20077;-64
2023/07/24 05:27:35;;;;;;;27.20;23.92;;;;;;;;;;4950504;28;20395;-65
2023/07/24 05:30:01;;;;;;;28.52;22.88;;;;;;;;;;4952780;28;20050;-64
2023/07/24 05:32:27;;;;;;;29.27;23.08;;;;;;;;;;4952623;28;20479;-63
2023/07/24 05:34:53;;;;;;;25.92;22.55;;;;;;;;;;4934631;28;20036;-61
2023/07/24 05:37:19;;;;;;;31.33;24.08;;;;;;;;;;4952514;28;20476;-65
2023/07/24 05:39:45;;;;;;;25.42;21.27;;;;;;;;;;4952224;28;20084;-65
2023/07/24 05:42:11;;;;;;;27.85;22.05;;;;;;;;;;4952529;28;20034;-64
2023/07/24 05:44:37;;;;;;;24.73;20.95;;;;;;;;;;4952466;28;20537;-65
2023/07/24 05:47:04;;;;;;;26.63;22.80;;;;;;;;;;4953669;28;20062;-65
2023/07/24 05:49:30;;;;;;;28.42;22.15;;;;;;;;;;4953211;28;20490;-64
2023/07/24 05:51:56;;;;;;;26.25;22.98;;;;;;;;;;4953551;28;20167;-64
2023/07/24 05:54:23;;;;;;;25.70;22.30;;;;;;;;;;4952929;28;20016;-63
2023/07/24 05:56:49;;;;;;;31.65;23.65;;;;;;;;;;4953181;28;20593;-65
2023/07/24 05:59:15;;;;;;;29.17;23.13;;;;;;;;;;4953021;28;20033;-65
2023/07/24 06:01:41;;;;;;;27.38;22.80;;;;;;;;;;4953795;28;20059;-66
2023/07/24 06:04:07;;;;;;;27.52;22.73;;;;;;;;;;4952054;28;20088;-65
2023/07/24 06:06:33;;;;;;;25.77;22.90;;;;;;;;;;4935208;28;20069;-65
2023/07/24 06:08:59;;;;;;;29.50;23.20;;;;;;;;;;4956820;28;20483;-66
2023/07/24 06:11:26;;;;;;;28.95;24.48;;;;;;;;;;4994012;28;20031;-66
2023/07/24 06:13:53;;;;;;;27.90;24.17;;;;;;;;;;4935298;28;20023;-64
2023/07/24 06:16:19;;;;;;;26.95;21.83;;;;;;;;;;4952425;29;20094;-64
2023/07/24 06:18:45;;;;;;;25.95;22.95;;;;;;;;;;4951997;28;20455;-64
2023/07/24 06:21:11;;;;;;;29.30;23.33;;;;;;;;;;4958701;23;20398;-59
2023/07/24 06:23:37;;;;;;;27.65;23.10;;;;;;;;;;4969984;28;20444;-59
2023/07/24 06:26:03;;;;;;;27.90;24.67;;;;;;;;;;4969337;28;20023;-59
2023/07/24 06:28:29;;;;;;;28.77;25.67;;;;;;;;;;4953798;28;20121;-58
2023/07/24 06:30:55;;;;;;;30.30;27.17;;;;;;;;;;4971269;28;20023;-60
2023/07/24 06:33:21;;;;;;;31.40;28.13;;;;;;;;;;4953799;28;20038;-56
2023/07/24 06:35:51;;;;;;;32.35;28.85;;;;;;;;;;4970515;28;20027;-53
2023/07/24 06:38:17;;;;;;;30.83;27.20;;;;;;;;;;4953326;28;20114;-57
2023/07/24 06:40:43;;;;;;;32.67;29.25;;;;;;;;;;4970785;28;20030;-59
2023/07/24 06:43:09;;;;;;;33.25;28.60;;;;;;;;;;4965394;28;20434;-53
2023/07/24 06:45:35;;;;;;;33.78;30.42;;;;;;;;;;4951141;28;20106;-56
2023/07/24 06:48:01;;;;;;;34.97;31.38;;;;;;;;;;4951863;28;20027;-54
2023/07/24 06:50:27;;;;;;;35.42;31.95;;;;;;;;;;4951581;28;20408;-55
2023/07/24 06:52:53;;;;;;;35.25;31.77;;;;;;;;;;4951644;28;20031;-57
2023/07/24 06:55:19;;;;;;;35.72;31.55;;;;;;;;;;4950510;28;20027;-55
2023/07/24 06:57:46;;;;;;;34.92;31.50;;;;;;;;;;4951448;28;20059;-59
2023/07/24 07:00:12;;;;;;;32.97;29.80;;;;;;;;;;4951192;28;20027;-57
2023/07/24 07:02:38;;;;;;;34.97;31.52;;;;;;;;;;4951148;28;20053;-56
2023/07/24 07:05:05;;;;;;;34.40;31.00;;;;;;;;;;4950721;28;20102;-58
2023/07/24 07:07:31;;;;;;;36.25;32.47;;;;;;;;;;4951297;28;20498;-51
2023/07/24 07:09:57;;;;;;;34.42;31.23;;;;;;;;;;4934014;28;20479;-56
2023/07/24 07:12:23;;;;;;;33.53;30.40;;;;;;;;;;4951456;28;20089;-59
2023/07/24 07:14:49;;;;;;;35.28;31.65;;;;;;;;;;4951229;28;20020;-58
2023/07/24 07:17:15;;;;;;;32.63;29.33;;;;;;;;;;4951366;28;20089;-57
2023/07/24 07:19:41;;;;;;;33.47;30.17;;;;;;;;;;4951287;28;20118;-58
2023/07/24 07:22:07;;;;;;;32.08;28.98;;;;;;;;;;4950980;28;20263;-58
2023/07/24 07:24:33;;;;;;;34.05;30.80;;;;;;;;;;4950505;28;20546;-58
2023/07/24 07:26:59;;;;;;;30.63;27.65;;;;;;;;;;4951093;28;20035;-57
2023/07/24 07:29:25;;;;;;;31.85;28.70;;;;;;;;;;4951117;28;20437;-58
2023/07/24 07:31:51;;;;;;;31.95;29.02;;;;;;;;;;4951003;28;20102;-58
2023/07/24 07:34:17;;;;;;;31.33;28.33;;;;;;;;;;4950223;28;20118;-58
2023/07/24 07:36:43;;;;;;;32.75;29.75;;;;;;;;;;4951086;28;20035;-58
2023/07/24 07:39:09;;;;;;;32.10;29.02;;;;;;;;;;4933539;28;20031;-58
2023/07/24 07:41:35;;;;;;;31.77;28.67;;;;;;;;;;4950782;28;20084;-58
2023/07/24 07:44:01;;;;;;;31.95;28.95;;;;;;;;;;4955789;28;20106;-57
2023/07/24 07:46:27;;;;;;;31.15;27.98;;;;;;;;;;4970026;28;20727;-57
2023/07/24 07:48:53;;;;;;;32.35;29.13;;;;;;;;;;4970065;28;20041;-63
2023/07/24 07:51:19;;;;;;;34.50;30.90;;;;;;;;;;4948818;28;20023;-64
2023/07/24 07:53:45;;;;;;;32.42;29.50;;;;;;;;;;4967161;28;20034;-63
2023/07/24 07:56:11;;;;;;;33.10;29.98;;;;;;;;;;4969288;28;20038;-63
2023/07/24 07:58:37;;;;;;;33.85;30.33;;;;;;;;;;4952312;28;20394;-61
2023/07/24 08:01:06;;;;;;;31.60;28.80;;;;;;;;;;4969696;28;20035;-62
2023/07/24 08:03:33;;;;;;;30.55;27.85;;;;;;;;;;4941823;28;20496;-63
2023/07/24 08:05:59;;;;;;;31.38;28.23;;;;;;;;;;4981937;28;20429;-64
2023/07/24 08:08:25;;;;;;;29.38;26.67;;;;;;;;;;4949166;28;20053;-63
2023/07/24 08:10:52;;;;;;;27.67;25.17;;;;;;;;;;4950486;28;20597;-61
2023/07/24 08:13:18;;;;;;;24.10;21.90;;;;;;;;;;4950439;28;20019;-58
2023/07/24 08:15:44;;;;;;;23.33;21.17;;;;;;;;;;4949585;29;20035;-58
2023/07/24 08:18:10;;;;;;;20.88;18.88;;;;;;;;;;4950464;28;20031;-56
2023/07/24 08:20:37;;;;;;;20.05;18.05;;;;;;;;;;4949865;28;20039;-57
2023/07/24 08:23:03;;;;;;;19.48;17.48;;;;;;;;;;4950404;28;20027;-58
2023/07/24 08:25:28;;;;;;;19.60;17.60;;;;;;;;;;4955334;28;20062;-56
2023/07/24 08:27:55;;;;;;;18.25;16.35;;;;;;;;;;4969349;28;20054;-57
2023/07/24 08:30:20;;;;;;;18.25;15.80;;;;;;;;;;4967200;28;20049;-57
2023/07/24 08:32:48;;;;;;;16.65;11.80;;;;;;;;;;4969602;28;20557;-58
2023/07/24 08:35:14;;;;;;;16.17;11.68;;;;;;;;;;4968721;28;20444;-57
2023/07/24 08:37:43;;;;;;;16.25;10.65;;;;;;;;;;4969714;28;20094;-58
2023/07/24 08:40:10;;;;;;;16.67;10.18;;;;;;;;;;4952271;28;20129;-59
2023/07/24 08:42:39;;;;;;;15.95;9.88;;;;;;;;;;4952113;28;20509;-60
2023/07/24 08:45:05;;;;;;;14.93;9.15;;;;;;;;;;4968730;28;20022;-52
2023/07/24 08:47:31;;;;;;;15.25;8.82;;;;;;;;;;4969201;28;20342;-54
2023/07/24 08:49:57;;;;;;;16.40;9.30;;;;;;;;;;4969141;28;20031;-53
2023/07/24 08:52:23;;;;;;;18.10;9.77;;;;;;;;;;4951985;28;20501;-56
2023/07/24 08:54:50;;;;;;;16.80;9.10;;;;;;;;;;4968667;28;20220;-52
2023/07/24 08:57:16;;;;;;;15.50;9.73;;;;;;;;;;4969250;28;20034;-53
2023/07/24 08:59:42;;;;;;;15.48;10.07;;;;;;;;;;4969384;28;20019;-56
2023/07/24 09:02:08;;;;;;;14.65;9.25;;;;;;;;;;4953747;28;20030;-56
2023/07/24 09:04:35;;;;;;;14.98;8.27;;;;;;;;;;4971900;28;20410;-54
2023/07/24 09:07:02;;;;;;;14.88;8.88;;;;;;;;;;4955075;28;20134;-55
2023/07/24 09:09:31;;;;;;;15.68;8.10;;;;;;;;;;4972366;28;20085;-55
2023/07/24 09:11:59;;;;;;;14.05;8.05;;;;;;;;;;4961393;28;20107;-55
2023/07/24 09:14:25;;;;;;;14.00;7.82;;;;;;;;;;4952284;28;20024;-55
2023/07/24 09:17:04;;;;;;;14.80;8.18;;;;;;;;;;4953114;28;20028;-55
2023/07/24 09:19:30;;;;;;;15.48;8.57;;;;;;;;;;4953145;28;20027;-54
2023/07/24 09:21:56;;;;;;;14.48;7.65;;;;;;;;;;4952730;28;20083;-56
2023/07/24 09:24:22;;;;;;;14.18;7.90;;;;;;;;;;4952193;28;20035;-56
2023/07/24 09:26:52;;;;;;;13.68;7.28;;;;;;;;;;4952860;28;20031;-57
2023/07/24 09:29:18;;;;;;;14.90;7.65;;;;;;;;;;4952754;29;20430;-54
2023/07/24 09:31:45;;;;;;;13.80;6.80;;;;;;;;;;4958223;28;20031;-53
2023/07/24 09:34:17;;;;;;;13.02;6.80;;;;;;;;;;4966950;28;20046;-51
2023/07/24 09:36:44;;;;;;;15.35;7.65;;;;;;;;;;4958680;28;20058;-56
2023/07/24 09:39:13;;;;;;;15.10;7.07;;;;;;;;;;4972110;28;20055;-61
2023/07/24 09:41:39;;;;;;;13.82;7.00;;;;;;;;;;4972276;28;20069;-58
2023/07/24 09:44:06;;;;;;;14.25;7.65;;;;;;;;;;4971333;28;20392;-59
2023/07/24 09:46:32;;;;;;;15.32;7.13;;;;;;;;;;4954363;28;20156;-56
2023/07/24 09:48:58;;;;;;;14.70;7.18;;;;;;;;;;4955779;28;20030;-56
2023/07/24 09:51:24;;;;;;;15.80;7.68;;;;;;;;;;4971796;28;20054;-54
2023/07/24 09:53:55;;;;;;;14.80;7.57;;;;;;;;;;4971700;28;20472;-56
2023/07/24 09:56:22;;;;;;;21.02;8.27;;;;;;;;;;4971288;28;20031;-56
2023/07/24 09:58:49;;;;;;;14.20;7.40;;;;;;;;;;4971211;28;20136;-56
2023/07/24 10:01:16;;;;;;;15.57;7.45;;;;;;;;;;4953932;28;20027;-56
2023/07/24 10:03:47;;;;;;;15.82;8.38;;;;;;;;;;4962479;28;20565;-55
2023/07/24 10:06:14;;;;;;;17.25;8.55;;;;;;;;;;4938488;28;20093;-54
2023/07/24 10:08:41;;;;;;;15.63;8.33;;;;;;;;;;4951993;28;20023;-55
2023/07/24 10:11:14;;;;;;;15.10;7.72;;;;;;;;;;4951931;28;20031;-55
2023/07/24 10:13:43;;;;;;;15.20;8.52;;;;;;;;;;4950846;28;20387;-56
2023/07/24 10:16:10;;;;;;;15.27;8.23;;;;;;;;;;4952053;28;20078;-55
2023/07/24 10:18:42;;;;;;;14.50;8.50;;;;;;;;;;4971188;28;20104;-57
2023/07/24 10:21:08;;;;;;;14.73;8.20;;;;;;;;;;4971171;28;20039;-57
2023/07/24 10:23:35;;;;;;;15.55;8.90;;;;;;;;;;4953956;28;20403;-57
2023/07/24 10:26:04;;;;;;;15.15;8.68;;;;;;;;;;4953254;28;20055;-56
2023/07/24 10:28:40;;;;;;;15.02;8.60;;;;;;;;;;4971138;28;20097;-55
2023/07/24 10:31:08;;;;;;;15.65;8.65;;;;;;;;;;4971290;28;20027;-55
2023/07/24 10:33:36;;;;;;;15.30;9.20;;;;;;;;;;4970908;28;20030;-50
2023/07/24 10:36:08;;;;;;;15.65;9.10;;;;;;;;;;4970498;28;20156;-54
2023/07/24 10:38:35;;;;;;;14.73;9.10;;;;;;;;;;4971099;28;20050;-51
2023/07/24 10:41:03;;;;;;;15.38;8.90;;;;;;;;;;4970994;28;20031;-49
2023/07/24 10:43:29;;;;;;;15.70;9.23;;;;;;;;;;4970369;28;20490;-47
2023/07/24 10:45:55;;;;;;;16.52;9.57;;;;;;;;;;4969951;28;20266;-49
2023/07/24 10:48:22;;;;;;;16.00;9.80;;;;;;;;;;4971689;28;20034;-49
2023/07/24 10:50:50;;;;;;;15.52;9.43;;;;;;;;;;4971328;28;20027;-55
2023/07/24 10:53:20;;;;;;;15.45;8.90;;;;;;;;;;4970909;28;20019;-51
2023/07/24 10:55:47;;;;;;;15.07;8.88;;;;;;;;;;4952223;28;20042;-47
2023/07/24 10:58:13;;;;;;;16.33;9.60;;;;;;;;;;4970777;28;20299;-55
2023/07/24 11:00:40;;;;;;;15.63;9.55;;;;;;;;;;4970670;28;20450;-51
2023/07/24 11:03:09;;;;;;;16.17;9.63;;;;;;;;;;4969487;28;20026;-48
2023/07/24 11:05:35;;;;;;;15.77;9.55;;;;;;;;;;4970294;28;20382;-51
2023/07/24 11:08:01;;;;;;;15.98;9.07;;;;;;;;;;4970905;28;20034;-51
2023/07/24 11:10:27;;;;;;;15.70;9.10;;;;;;;;;;4970722;28;20026;-50
2023/07/24 11:12:53;;;;;;;16.10;9.57;;;;;;;;;;4950504;28;20062;-48
2023/07/24 11:15:26;;;;;;;15.80;10.20;;;;;;;;;;4950464;29;20019;-51
2023/07/24 11:17:52;;;;;;;16.35;9.23;;;;;;;;;;4951436;28;20027;-48
2023/07/24 11:20:18;;;;;;;16.55;9.65;;;;;;;;;;4933512;28;20047;-50
2023/07/24 11:22:44;;;;;;;15.00;9.43;;;;;;;;;;4951019;28;20487;-48
2023/07/24 11:25:11;;;;;;;15.70;9.57;;;;;;;;;;4949073;28;20088;-50
2023/07/24 11:27:44;;;;;;;14.60;8.88;;;;;;;;;;4951140;28;20032;-49
2023/07/24 11:30:11;;;;;;;15.27;9.23;;;;;;;;;;4951228;29;20031;-48
2023/07/24 11:32:38;;;;;;;15.40;8.55;;;;;;;;;;4951314;28;20445;-52
2023/07/24 11:35:05;;;;;;;15.35;8.65;;;;;;;;;;4950538;29;20019;-53
2023/07/24 11:37:31;;;;;;;15.13;9.00;;;;;;;;;;4951156;28;20027;-51
2023/07/24 11:39:57;;;;;;;14.68;8.88;;;;;;;;;;4950620;28;20493;-55
2023/07/24 11:42:25;;;;;;;14.88;9.10;;;;;;;;;;4951724;29;20129;-55
2023/07/24 11:44:51;;;;;;;15.25;8.85;;;;;;;;;;4950192;28;20566;-54
2023/07/24 11:47:17;;;;;;;17.80;8.85;;;;;;;;;;4951122;28;20122;-53
2023/07/24 11:49:48;;;;;;;14.80;8.90;;;;;;;;;;4950864;28;20032;-50
2023/07/24 11:52:14;;;;;;;18.13;9.13;;;;;;;;;;4950928;29;20020;-53
2023/07/24 11:54:40;;;;;;;14.52;8.60;;;;;;;;;;4950055;29;20110;-47
2023/07/24 11:57:16;;;;;;;15.13;8.55;;;;;;;;;;4950507;28;20387;-53
2023/07/24 11:59:42;;;;;;;16.45;9.07;;;;;;;;;;4949538;28;20426;-54
2023/07/24 12:02:11;;;;;;;15.38;8.45;;;;;;;;;;4949973;28;20372;-52
2023/07/24 12:04:37;;;;;;;16.67;9.00;;;;;;;;;;4949640;29;20106;-53
2023/07/24 12:07:08;;;;;;;15.70;9.15;;;;;;;;;;4933363;28;20073;-49
2023/07/24 12:09:34;;;;;;;16.25;8.88;;;;;;;;;;4950251;28;20051;-51
2023/07/24 12:12:00;;;;;;;15.52;8.93;;;;;;;;;;4945745;28;20499;-51
2023/07/24 12:14:26;;;;;;;16.58;9.20;;;;;;;;;;4949460;28;20054;-53
2023/07/24 12:17:02;;;;;;;15.60;9.60;;;;;;;;;;4950360;28;20499;-59
2023/07/24 12:19:28;;;;;;;15.25;9.05;;;;;;;;;;4982463;28;20031;-52
2023/07/24 12:21:54;;;;;;;15.85;9.18;;;;;;;;;;4957787;28;20054;-52
2023/07/24 12:24:20;;;;;;;17.73;9.13;;;;;;;;;;4956477;28;20028;-53
2023/07/24 12:26:46;;;;;;;17.10;11.18;;;;;;;;;;4959561;28;20556;-51
2023/07/24 12:29:12;;;;;;;18.38;14.18;;;;;;;;;;4962563;28;20035;-51
2023/07/24 12:31:38;;;;;;;18.92;15.63;;;;;;;;;;4957682;28;20023;-49
2023/07/24 12:34:04;;;;;;;22.55;20.20;;;;;;;;;;4963083;28;20050;-50
2023/07/24 12:36:30;;;;;;;24.27;21.88;;;;;;;;;;4966073;28;20382;-50
2023/07/24 12:38:56;;;;;;;33.40;30.60;;;;;;;;;;4969493;28;20035;-50
2023/07/24 12:41:22;;;;;;;35.90;33.00;;;;;;;;;;4962280;28;20385;-50
2023/07/24 12:43:48;;;;;;;35.80;32.83;;;;;;;;;;4952901;28;20441;-53
2023/07/24 12:46:14;;;;;;;34.65;31.75;;;;;;;;;;4952778;28;20031;-52
2023/07/24 12:48:40;;;;;;;32.95;30.02;;;;;;;;;;4953180;28;20165;-51
2023/07/24 12:51:06;;;;;;;35.28;32.08;;;;;;;;;;4971264;28;20110;-51
2023/07/24 12:53:32;;;;;;;29.25;26.65;;;;;;;;;;4973001;28;20080;-53
2023/07/24 12:55:58;;;;;;;28.92;26.23;;;;;;;;;;4972102;28;20483;-52
2023/07/24 12:58:24;;;;;;;28.17;25.67;;;;;;;;;;4972650;28;20031;-57
2023/07/24 13:00:50;;;;;;;26.33;23.67;;;;;;;;;;4947497;28;20399;-50
2023/07/24 13:03:16;;;;;;;26.27;23.88;;;;;;;;;;4948629;29;20035;-50
2023/07/24 13:05:42;;;;;;;27.33;24.83;;;;;;;;;;4953315;28;20033;-53
2023/07/24 13:08:08;;;;;;;25.63;23.33;;;;;;;;;;4949104;28;20093;-51
2023/07/24 13:10:34;;;;;;;24.17;22.00;;;;;;;;;;4945107;28;20035;-52
2023/07/24 13:13:01;;;;;;;23.30;21.20;;;;;;;;;;4954556;28;20050;-54
2023/07/24 13:15:27;;;;;;;21.77;19.58;;;;;;;;;;4952572;28;20038;-49
2023/07/24 13:17:53;;;;;;;20.58;18.48;;;;;;;;;;4953239;28;20393;-49
2023/07/24 13:20:19;;;;;;;20.15;17.98;;;;;;;;;;4948090;28;20108;-51
2023/07/24 13:22:46;;;;;;;18.92;16.92;;;;;;;;;;4972416;28;20398;-47
2023/07/24 13:25:12;;;;;;;20.93;18.83;;;;;;;;;;4967157;28;20135;-53
2023/07/24 13:27:38;;;;;;;22.17;20.02;;;;;;;;;;4971118;28;20073;-53
2023/07/24 13:30:05;;;;;;;19.73;17.73;;;;;;;;;;4969132;28;20495;-48
2023/07/24 13:32:31;;;;;;;23.25;19.00;;;;;;;;;;4972108;28;20399;-51
2023/07/24 13:34:57;;;;;;;19.85;17.95;;;;;;;;;;4971226;28;20023;-52
2023/07/24 13:37:24;;;;;;;18.65;16.70;;;;;;;;;;4972205;28;20045;-47
2023/07/24 13:39:51;;;;;;;18.45;16.48;;;;;;;;;;4972031;28;20019;-50
2023/07/24 13:42:17;;;;;;;18.10;16.20;;;;;;;;;;4954374;28;20038;-49
2023/07/24 13:44:43;;;;;;;17.35;15.35;;;;;;;;;;4953892;28;20123;-50
2023/07/24 13:47:09;;;;;;;16.10;12.48;;;;;;;;;;4972055;28;20027;-52
2023/07/24 13:49:35;;;;;;;16.92;12.63;;;;;;;;;;4970807;28;20034;-52
2023/07/24 13:52:01;;;;;;;16.77;11.73;;;;;;;;;;4971420;28;20092;-52
2023/07/24 13:54:27;;;;;;;16.35;11.40;;;;;;;;;;4971052;28;20113;-54
2023/07/24 13:56:53;;;;;;;17.08;11.43;;;;;;;;;;4971764;28;20097;-50
2023/07/24 13:59:19;;;;;;;16.40;10.90;;;;;;;;;;4972094;28;20065;-50
2023/07/24 14:01:45;;;;;;;16.60;10.55;;;;;;;;;;4971645;28;20041;-50
2023/07/24 14:04:12;;;;;;;15.68;10.30;;;;;;;;;;4970400;28;20031;-49
2023/07/24 14:06:38;;;;;;;16.55;10.82;;;;;;;;;;4965870;28;20069;-54
2023/07/24 14:09:04;;;;;;;17.02;10.68;;;;;;;;;;4940895;28;20028;-53
2023/07/24 14:11:30;;;;;;;16.65;11.05;;;;;;;;;;4946863;28;20038;-54
2023/07/24 14:13:56;;;;;;;16.70;11.38;;;;;;;;;;4951710;28;20027;-49
2023/07/24 14:16:22;;;;;;;17.23;11.52;;;;;;;;;;4952323;28;20541;-51